sensor_id;sensor_type;location;lat;lon;timestamp;pressure;altitude;pressure_sealevel;temperature;humidity
26859;BME280;14429;48.346;16.338;2023-08-12T00:00:00;100282.03;;;24.73;48.64
26859;BME280;14429;48.346;16.338;2023-08-12T00:02:25;100291.03;;;24.82;48.50
26859;BME280;14429;48.346;16.338;2023-08-12T00:04:50;100283.50;;;24.84;48.49
26859;BME280;14429;48.346;16.338;2023-08-12T00:07:17;100286.94;;;24.86;48.39
26859;BME280;14429;48.346;16.338;2023-08-12T00:09:43;100285.88;;;24.87;48.30
26859;BME280;14429;48.346;16.338;2023-08-12T00:12:08;100279.41;;;24.88;48.06
26859;BME280;14429;48.346;16.338;2023-08-12T00:14:33;100289.84;;;24.84;48.39
26859;BME280;14429;48.346;16.338;2023-08-12T00:16:59;100288.81;;;24.85;48.34
26859;BME280;14429;48.346;16.338;2023-08-12T00:19:24;100287.97;;;24.85;48.46
26859;BME280;14429;48.346;16.338;2023-08-12T00:21:50;100286.44;;;24.82;48.41
26859;BME280;14429;48.346;16.338;2023-08-12T00:24:16;100299.03;;;24.83;48.40
26859;BME280;14429;48.346;16.338;2023-08-12T00:26:42;100298.56;;;24.80;48.63
26859;BME280;14429;48.346;16.338;2023-08-12T00:29:07;100292.56;;;24.76;48.50
26859;BME280;14429;48.346;16.338;2023-08-12T00:31:32;100293.44;;;24.77;48.36
26859;BME280;14429;48.346;16.338;2023-08-12T00:33:58;100301.44;;;24.78;48.52
26859;BME280;14429;48.346;16.338;2023-08-12T00:36:23;100290.88;;;24.75;48.17
26859;BME280;14429;48.346;16.338;2023-08-12T00:38:49;100282.72;;;24.67;48.53
26859;BME280;14429;48.346;16.338;2023-08-12T00:41:16;100283.09;;;24.64;48.83
26859;BME280;14429;48.346;16.338;2023-08-12T00:43:41;100293.09;;;24.72;48.56
26859;BME280;14429;48.346;16.338;2023-08-12T00:46:07;100285.97;;;24.71;48.82
26859;BME280;14429;48.346;16.338;2023-08-12T00:48:32;100286.16;;;24.69;48.68
26859;BME280;14429;48.346;16.338;2023-08-12T00:50:58;100284.06;;;24.71;48.61
26859;BME280;14429;48.346;16.338;2023-08-12T00:53:24;100284.81;;;24.65;48.73
26859;BME280;14429;48.346;16.338;2023-08-12T00:55:49;100286.84;;;24.63;48.86
26859;BME280;14429;48.346;16.338;2023-08-12T00:58:16;100288.53;;;24.64;48.58
26859;BME280;14429;48.346;16.338;2023-08-12T01:00:42;100281.41;;;24.63;48.84
26859;BME280;14429;48.346;16.338;2023-08-12T01:03:07;100283.47;;;24.62;48.57
26859;BME280;14429;48.346;16.338;2023-08-12T01:05:33;100279.91;;;24.53;48.99
26859;BME280;14429;48.346;16.338;2023-08-12T01:07:58;100280.41;;;24.57;48.88
26859;BME280;14429;48.346;16.338;2023-08-12T01:10:29;100288.44;;;24.58;48.61
26859;BME280;14429;48.346;16.338;2023-08-12T01:13:06;100291.66;;;24.62;48.84
26859;BME280;14429;48.346;16.338;2023-08-12T01:15:35;100293.19;;;24.56;48.96
26859;BME280;14429;48.346;16.338;2023-08-12T01:18:01;100298.13;;;24.61;49.00
26859;BME280;14429;48.346;16.338;2023-08-12T01:20:28;100305.75;;;24.65;48.60
26859;BME280;14429;48.346;16.338;2023-08-12T01:22:56;100299.47;;;24.64;48.78
26859;BME280;14429;48.346;16.338;2023-08-12T01:25:24;100296.06;;;24.62;48.70
26859;BME280;14429;48.346;16.338;2023-08-12T01:27:49;100292.31;;;24.63;48.88
26859;BME280;14429;48.346;16.338;2023-08-12T01:30:15;100294.38;;;24.62;48.81
26859;BME280;14429;48.346;16.338;2023-08-12T01:32:43;100303.56;;;24.61;48.79
26859;BME280;14429;48.346;16.338;2023-08-12T01:35:17;100297.28;;;24.60;48.84
26859;BME280;14429;48.346;16.338;2023-08-12T01:37:44;100301.88;;;24.60;48.81
26859;BME280;14429;48.346;16.338;2023-08-12T01:40:11;100302.91;;;24.59;48.75
26859;BME280;14429;48.346;16.338;2023-08-12T01:42:39;100287.44;;;24.51;48.88
26859;BME280;14429;48.346;16.338;2023-08-12T01:45:06;100293.75;;;24.52;48.81
26859;BME280;14429;48.346;16.338;2023-08-12T01:47:31;100297.81;;;24.56;48.97
26859;BME280;14429;48.346;16.338;2023-08-12T01:49:57;100293.41;;;24.55;49.08
26859;BME280;14429;48.346;16.338;2023-08-12T01:52:22;100299.00;;;24.53;48.94
26859;BME280;14429;48.346;16.338;2023-08-12T01:54:48;100306.34;;;24.53;49.01
26859;BME280;14429;48.346;16.338;2023-08-12T01:57:13;100298.00;;;24.54;48.91
26859;BME280;14429;48.346;16.338;2023-08-12T01:59:40;100305.16;;;24.55;48.78
26859;BME280;14429;48.346;16.338;2023-08-12T02:02:05;100302.59;;;24.54;49.05
26859;BME280;14429;48.346;16.338;2023-08-12T02:04:31;100303.06;;;24.11;47.47
26859;BME280;14429;48.346;16.338;2023-08-12T02:06:56;100312.06;;;24.28;49.35
26859;BME280;14429;48.346;16.338;2023-08-12T02:09:22;100307.47;;;24.36;49.30
26859;BME280;14429;48.346;16.338;2023-08-12T02:11:48;100308.47;;;24.43;49.08
26859;BME280;14429;48.346;16.338;2023-08-12T02:14:14;100302.81;;;24.44;49.14
26859;BME280;14429;48.346;16.338;2023-08-12T02:16:40;100298.19;;;24.45;48.88
26859;BME280;14429;48.346;16.338;2023-08-12T02:19:06;100293.78;;;24.44;49.01
26859;BME280;14429;48.346;16.338;2023-08-12T02:21:31;100301.63;;;24.47;49.33
26859;BME280;14429;48.346;16.338;2023-08-12T02:23:57;100298.91;;;24.47;48.85
26859;BME280;14429;48.346;16.338;2023-08-12T02:26:22;100300.63;;;24.40;48.97
26859;BME280;14429;48.346;16.338;2023-08-12T02:28:48;100301.63;;;24.39;49.33
26859;BME280;14429;48.346;16.338;2023-08-12T02:31:15;100300.97;;;24.37;49.24
26859;BME280;14429;48.346;16.338;2023-08-12T02:33:42;100301.31;;;24.34;49.30
26859;BME280;14429;48.346;16.338;2023-08-12T02:36:07;100305.22;;;24.39;49.29
26859;BME280;14429;48.346;16.338;2023-08-12T02:38:33;100296.50;;;24.44;49.13
26859;BME280;14429;48.346;16.338;2023-08-12T02:40:58;100303.31;;;24.48;49.04
26859;BME280;14429;48.346;16.338;2023-08-12T02:43:23;100299.75;;;24.47;48.88
26859;BME280;14429;48.346;16.338;2023-08-12T02:45:49;100300.94;;;24.45;49.10
26859;BME280;14429;48.346;16.338;2023-08-12T02:48:14;100303.00;;;24.43;49.25
26859;BME280;14429;48.346;16.338;2023-08-12T02:50:41;100305.22;;;24.39;49.34
26859;BME280;14429;48.346;16.338;2023-08-12T02:53:08;100294.81;;;24.43;49.17
26859;BME280;14429;48.346;16.338;2023-08-12T02:55:34;100303.16;;;24.41;49.28
26859;BME280;14429;48.346;16.338;2023-08-12T02:57:59;100296.88;;;24.41;48.97
26859;BME280;14429;48.346;16.338;2023-08-12T03:00:25;100287.63;;;24.42;48.96
26859;BME280;14429;48.346;16.338;2023-08-12T03:02:50;100300.28;;;24.43;48.83
26859;BME280;14429;48.346;16.338;2023-08-12T03:05:16;100298.91;;;24.39;49.04
26859;BME280;14429;48.346;16.338;2023-08-12T03:07:43;100297.94;;;24.32;49.18
26859;BME280;14429;48.346;16.338;2023-08-12T03:10:10;100298.06;;;24.38;49.08
26859;BME280;14429;48.346;16.338;2023-08-12T03:12:35;100302.31;;;24.41;49.06
26859;BME280;14429;48.346;16.338;2023-08-12T03:15:01;100308.81;;;24.40;49.31
26859;BME280;14429;48.346;16.338;2023-08-12T03:17:26;100320.72;;;24.39;49.18
26859;BME280;14429;48.346;16.338;2023-08-12T03:19:51;100304.00;;;24.42;48.94
26859;BME280;14429;48.346;16.338;2023-08-12T03:22:17;100304.53;;;24.37;49.04
26859;BME280;14429;48.346;16.338;2023-08-12T03:24:44;100306.44;;;24.37;48.94
26859;BME280;14429;48.346;16.338;2023-08-12T03:27:09;100306.63;;;24.35;48.97
26859;BME280;14429;48.346;16.338;2023-08-12T03:29:34;100305.38;;;24.38;48.97
26859;BME280;14429;48.346;16.338;2023-08-12T03:32:00;100303.38;;;24.32;49.05
26859;BME280;14429;48.346;16.338;2023-08-12T03:34:27;100296.22;;;24.31;49.06
26859;BME280;14429;48.346;16.338;2023-08-12T03:36:53;100302.16;;;24.34;49.25
26859;BME280;14429;48.346;16.338;2023-08-12T03:39:18;100306.44;;;24.37;48.85
26859;BME280;14429;48.346;16.338;2023-08-12T03:41:45;100302.00;;;24.36;48.93
26859;BME280;14429;48.346;16.338;2023-08-12T03:44:10;100299.63;;;24.33;49.25
26859;BME280;14429;48.346;16.338;2023-08-12T03:46:36;100293.66;;;24.30;49.16
26859;BME280;14429;48.346;16.338;2023-08-12T03:49:01;100309.53;;;24.26;49.50
26859;BME280;14429;48.346;16.338;2023-08-12T03:51:27;100307.84;;;24.25;49.62
26859;BME280;14429;48.346;16.338;2023-08-12T03:53:52;100307.50;;;24.28;49.27
26859;BME280;14429;48.346;16.338;2023-08-12T03:56:17;100304.38;;;24.31;48.97
26859;BME280;14429;48.346;16.338;2023-08-12T03:58:44;100304.59;;;24.30;49.04
26859;BME280;14429;48.346;16.338;2023-08-12T04:01:10;100302.03;;;24.28;49.32
26859;BME280;14429;48.346;16.338;2023-08-12T04:03:35;100300.69;;;24.24;49.18
26859;BME280;14429;48.346;16.338;2023-08-12T04:06:01;100296.59;;;24.28;49.05
26859;BME280;14429;48.346;16.338;2023-08-12T04:08:26;100294.53;;;24.30;49.10
26859;BME280;14429;48.346;16.338;2023-08-12T04:10:52;100296.22;;;24.31;49.30
26859;BME280;14429;48.346;16.338;2023-08-12T04:13:17;100299.97;;;24.30;49.02
26859;BME280;14429;48.346;16.338;2023-08-12T04:15:48;100296.59;;;24.28;49.00
26859;BME280;14429;48.346;16.338;2023-08-12T04:18:13;100297.09;;;24.24;49.18
26859;BME280;14429;48.346;16.338;2023-08-12T04:20:39;100297.44;;;24.29;49.29
26859;BME280;14429;48.346;16.338;2023-08-12T04:23:04;100299.47;;;24.27;48.98
26859;BME280;14429;48.346;16.338;2023-08-12T04:25:30;100303.88;;;24.28;49.11
26859;BME280;14429;48.346;16.338;2023-08-12T04:27:55;100302.88;;;24.29;49.02
26859;BME280;14429;48.346;16.338;2023-08-12T04:30:21;100302.88;;;24.29;49.15
26859;BME280;14429;48.346;16.338;2023-08-12T04:32:48;100300.31;;;24.27;49.34
26859;BME280;14429;48.346;16.338;2023-08-12T04:35:13;100308.19;;;24.22;49.38
26859;BME280;14429;48.346;16.338;2023-08-12T04:37:38;100292.66;;;24.23;49.38
26859;BME280;14429;48.346;16.338;2023-08-12T04:40:05;100299.47;;;24.27;48.93
26859;BME280;14429;48.346;16.338;2023-08-12T04:42:31;100300.31;;;24.27;49.30
26859;BME280;14429;48.346;16.338;2023-08-12T04:44:56;100296.22;;;24.31;49.13
26859;BME280;14429;48.346;16.338;2023-08-12T04:47:22;100302.31;;;24.41;48.61
26859;BME280;14429;48.346;16.338;2023-08-12T04:49:48;100304.47;;;24.53;48.52
26859;BME280;14429;48.346;16.338;2023-08-12T04:52:14;100302.38;;;24.63;48.02
26859;BME280;14429;48.346;16.338;2023-08-12T04:54:39;100300.81;;;24.68;48.15
26859;BME280;14429;48.346;16.338;2023-08-12T04:57:04;100295.97;;;24.78;47.70
26859;BME280;14429;48.346;16.338;2023-08-12T04:59:30;100305.00;;;24.87;47.71
26859;BME280;14429;48.346;16.338;2023-08-12T05:01:55;100305.63;;;24.96;47.32
26859;BME280;14429;48.346;16.338;2023-08-12T05:04:21;100306.13;;;25.00;47.02
26859;BME280;14429;48.346;16.338;2023-08-12T05:06:47;100308.78;;;25.08;46.89
26859;BME280;14429;48.346;16.338;2023-08-12T05:09:13;100302.97;;;25.11;46.74
26859;BME280;14429;48.346;16.338;2023-08-12T05:11:39;100309.78;;;25.15;46.53
26859;BME280;14429;48.346;16.338;2023-08-12T05:14:04;100308.53;;;25.17;46.65
26859;BME280;14429;48.346;16.338;2023-08-12T05:16:29;100302.97;;;25.11;46.90
26859;BME280;14429;48.346;16.338;2023-08-12T05:18:55;100306.13;;;25.00;47.22
26859;BME280;14429;48.346;16.338;2023-08-12T05:21:20;100302.91;;;24.96;46.82
26859;BME280;14429;48.346;16.338;2023-08-12T05:23:47;100305.50;;;24.90;47.16
26859;BME280;14429;48.346;16.338;2023-08-12T05:26:12;100306.34;;;24.90;47.12
26859;BME280;14429;48.346;16.338;2023-08-12T05:28:38;100302.09;;;24.88;47.45
26859;BME280;14429;48.346;16.338;2023-08-12T05:31:03;100304.50;;;24.83;47.26
26859;BME280;14429;48.346;16.338;2023-08-12T05:33:28;100302.47;;;24.77;47.56
26859;BME280;14429;48.346;16.338;2023-08-12T05:35:54;100306.75;;;24.42;47.64
26859;BME280;14429;48.346;16.338;2023-08-12T05:38:19;100308.47;;;24.35;48.34
26859;BME280;14429;48.346;16.338;2023-08-12T05:40:46;100305.38;;;24.38;48.28
26859;BME280;14429;48.346;16.338;2023-08-12T05:43:11;100303.88;;;24.28;48.81
26859;BME280;14429;48.346;16.338;2023-08-12T05:45:37;100309.91;;;24.07;48.81
26859;BME280;14429;48.346;16.338;2023-08-12T05:48:03;100307.16;;;24.23;48.71
26859;BME280;14429;48.346;16.338;2023-08-12T05:50:28;100314.91;;;24.42;48.52
26859;BME280;14429;48.346;16.338;2023-08-12T05:52:54;100311.31;;;24.49;48.04
26859;BME280;14429;48.346;16.338;2023-08-12T05:55:19;100322.72;;;24.53;48.17
26859;BME280;14429;48.346;16.338;2023-08-12T05:57:46;100312.31;;;23.87;49.49
26859;BME280;14429;48.346;16.338;2023-08-12T06:00:11;100308.03;;;24.54;48.33
26859;BME280;14429;48.346;16.338;2023-08-12T06:02:37;100311.78;;;24.90;47.26
26859;BME280;14429;48.346;16.338;2023-08-12T06:05:02;100313.22;;;25.09;47.12
26859;BME280;14429;48.346;16.338;2023-08-12T06:07:28;100307.88;;;25.37;46.25
26859;BME280;14429;48.346;16.338;2023-08-12T06:09:53;100306.06;;;25.52;45.95
26859;BME280;14429;48.346;16.338;2023-08-12T06:12:19;100306.22;;;25.72;45.62
26859;BME280;14429;48.346;16.338;2023-08-12T06:14:46;100306.22;;;25.72;45.26
26859;BME280;14429;48.346;16.338;2023-08-12T06:17:11;100297.72;;;25.68;45.32
26859;BME280;14429;48.346;16.338;2023-08-12T06:19:36;100302.78;;;25.93;44.75
26859;BME280;14429;48.346;16.338;2023-08-12T06:22:02;100295.56;;;25.92;44.87
26859;BME280;14429;48.346;16.338;2023-08-12T06:24:27;100296.66;;;26.05;44.37
26859;BME280;14429;48.346;16.338;2023-08-12T06:26:53;100303.78;;;25.92;44.88
26859;BME280;14429;48.346;16.338;2023-08-12T06:29:18;100292.91;;;26.34;45.05
26859;BME280;14429;48.346;16.338;2023-08-12T06:31:45;100288.16;;;26.28;44.15
26859;BME280;14429;48.346;16.338;2023-08-12T06:34:10;100281.91;;;26.06;45.49
26859;BME280;14429;48.346;16.338;2023-08-12T06:36:36;100282.53;;;26.16;44.43
26859;BME280;14429;48.346;16.338;2023-08-12T06:39:01;100271.34;;;26.03;44.75
26859;BME280;14429;48.346;16.338;2023-08-12T06:41:26;100282.63;;;26.08;44.73
26859;BME280;14429;48.346;16.338;2023-08-12T06:43:52;100277.59;;;25.97;45.05
26859;BME280;14429;48.346;16.338;2023-08-12T06:46:17;100273.94;;;26.19;45.33
26859;BME280;14429;48.346;16.338;2023-08-12T06:48:44;100280.53;;;26.24;44.40
26859;BME280;14429;48.346;16.338;2023-08-12T06:51:09;100276.22;;;26.29;44.44
26859;BME280;14429;48.346;16.338;2023-08-12T06:53:35;100272.41;;;26.45;44.08
26859;BME280;14429;48.346;16.338;2023-08-12T06:56:01;100276.13;;;26.37;43.98
26859;BME280;14429;48.346;16.338;2023-08-12T06:58:26;100269.09;;;26.78;44.94
26859;BME280;14429;48.346;16.338;2023-08-12T07:00:51;100268.78;;;26.58;43.80
26859;BME280;14429;48.346;16.338;2023-08-12T07:03:17;100273.25;;;26.59;43.95
26859;BME280;14429;48.346;16.338;2023-08-12T07:05:43;100278.28;;;26.42;44.09
26859;BME280;14429;48.346;16.338;2023-08-12T07:08:09;100270.84;;;26.22;44.31
26859;BME280;14429;48.346;16.338;2023-08-12T07:10:37;100274.91;;;26.11;44.77
26859;BME280;14429;48.346;16.338;2023-08-12T07:13:03;100277.06;;;25.65;47.60
26859;BME280;14429;48.346;16.338;2023-08-12T07:15:28;100274.69;;;25.48;47.62
26859;BME280;14429;48.346;16.338;2023-08-12T07:17:54;100270.75;;;25.42;48.33
26859;BME280;14429;48.346;16.338;2023-08-12T07:20:19;100279.50;;;25.38;48.36
26859;BME280;14429;48.346;16.338;2023-08-12T07:22:46;100264.44;;;25.42;46.81
26859;BME280;14429;48.346;16.338;2023-08-12T07:25:11;100265.72;;;25.17;49.79
26859;BME280;14429;48.346;16.338;2023-08-12T07:27:37;100265.44;;;25.05;48.29
26859;BME280;14429;48.346;16.338;2023-08-12T07:30:02;100266.06;;;25.15;49.12
26859;BME280;14429;48.346;16.338;2023-08-12T07:32:28;100259.06;;;24.90;49.98
26859;BME280;14429;48.346;16.338;2023-08-12T07:34:53;100266.50;;;24.74;50.23
26859;BME280;14429;48.346;16.338;2023-08-12T07:37:18;100276.53;;;24.51;51.28
26859;BME280;14429;48.346;16.338;2023-08-12T07:39:45;100270.47;;;24.63;51.27
26859;BME280;14429;48.346;16.338;2023-08-12T07:42:11;100259.44;;;24.87;48.45
26859;BME280;14429;48.346;16.338;2023-08-12T07:44:36;100261.63;;;24.62;50.97
26859;BME280;14429;48.346;16.338;2023-08-12T07:47:02;100265.22;;;24.32;51.56
26859;BME280;14429;48.346;16.338;2023-08-12T07:49:27;100258.13;;;24.45;52.35
26859;BME280;14429;48.346;16.338;2023-08-12T07:51:53;100251.72;;;24.61;49.81
26859;BME280;14429;48.346;16.338;2023-08-12T07:54:18;100257.63;;;24.42;52.83
26859;BME280;14429;48.346;16.338;2023-08-12T07:56:45;100253.47;;;24.54;49.98
26859;BME280;14429;48.346;16.338;2023-08-12T07:59:10;100253.56;;;24.38;52.91
26859;BME280;14429;48.346;16.338;2023-08-12T08:01:35;100252.66;;;24.75;48.96
26859;BME280;14429;48.346;16.338;2023-08-12T08:04:01;100242.53;;;24.62;50.86
26859;BME280;14429;48.346;16.338;2023-08-12T08:06:26;100243.53;;;24.61;51.02
26859;BME280;14429;48.346;16.338;2023-08-12T08:08:52;100239.00;;;24.75;48.89
26859;BME280;14429;48.346;16.338;2023-08-12T08:11:17;100239.38;;;24.80;48.81
26859;BME280;14429;48.346;16.338;2023-08-12T08:13:44;100235.59;;;24.81;49.27
26859;BME280;14429;48.346;16.338;2023-08-12T08:16:09;100232.19;;;24.79;49.63
26859;BME280;14429;48.346;16.338;2023-08-12T08:18:35;100232.44;;;24.92;48.75
26859;BME280;14429;48.346;16.338;2023-08-12T08:21:00;100224.56;;;24.97;48.64
26859;BME280;14429;48.346;16.338;2023-08-12T08:23:26;100221.63;;;24.98;48.53
26859;BME280;14429;48.346;16.338;2023-08-12T08:25:51;100226.50;;;25.11;48.61
26859;BME280;14429;48.346;16.338;2023-08-12T08:28:16;100226.13;;;25.14;48.19
26859;BME280;14429;48.346;16.338;2023-08-12T08:30:43;100220.69;;;25.14;47.84
26859;BME280;14429;48.346;16.338;2023-08-12T08:33:09;100221.53;;;25.14;48.15
26859;BME280;14429;48.346;16.338;2023-08-12T08:35:34;100220.41;;;25.23;47.82
26859;BME280;14429;48.346;16.338;2023-08-12T08:37:59;100224.25;;;25.28;47.95
26859;BME280;14429;48.346;16.338;2023-08-12T08:40:25;100222.91;;;25.32;47.46
26859;BME280;14429;48.346;16.338;2023-08-12T08:42:52;100226.00;;;25.29;47.53
26859;BME280;14429;48.346;16.338;2023-08-12T08:45:17;100220.81;;;25.34;48.47
26859;BME280;14429;48.346;16.338;2023-08-12T08:47:44;100226.00;;;25.29;47.61
26859;BME280;14429;48.346;16.338;2023-08-12T08:50:11;100224.22;;;25.36;47.67
26859;BME280;14429;48.346;16.338;2023-08-12T08:52:38;100216.94;;;25.43;47.49
26859;BME280;14429;48.346;16.338;2023-08-12T08:55:04;100224.50;;;25.41;47.82
26859;BME280;14429;48.346;16.338;2023-08-12T08:57:30;100219.34;;;25.46;47.48
26859;BME280;14429;48.346;16.338;2023-08-12T08:59:55;100225.78;;;25.53;47.38
26859;BME280;14429;48.346;16.338;2023-08-12T09:02:21;100224.13;;;25.66;47.24
26859;BME280;14429;48.346;16.338;2023-08-12T09:04:48;100216.44;;;25.62;46.37
26859;BME280;14429;48.346;16.338;2023-08-12T09:07:14;100222.69;;;25.70;46.93
26859;BME280;14429;48.346;16.338;2023-08-12T09:09:45;100222.59;;;25.78;46.66
26859;BME280;14429;48.346;16.338;2023-08-12T09:12:12;100220.34;;;25.96;46.50
26859;BME280;14429;48.346;16.338;2023-08-12T09:14:38;100222.88;;;25.97;46.46
26859;BME280;14429;48.346;16.338;2023-08-12T09:17:04;100224.69;;;26.04;46.56
26859;BME280;14429;48.346;16.338;2023-08-12T09:19:29;100217.53;;;26.03;46.08
26859;BME280;14429;48.346;16.338;2023-08-12T09:21:56;100210.72;;;25.99;45.93
26859;BME280;14429;48.346;16.338;2023-08-12T09:24:24;100204.78;;;25.96;46.12
26859;BME280;14429;48.346;16.338;2023-08-12T09:26:51;100204.88;;;26.17;46.80
26859;BME280;14429;48.346;16.338;2023-08-12T09:29:16;100192.00;;;26.11;46.75
26859;BME280;14429;48.346;16.338;2023-08-12T09:31:42;100193.00;;;26.10;46.15
26859;BME280;14429;48.346;16.338;2023-08-12T09:34:07;100198.38;;;25.89;46.26
26859;BME280;14429;48.346;16.338;2023-08-12T09:36:33;100192.00;;;26.11;47.18
26859;BME280;14429;48.346;16.338;2023-08-12T09:39:00;100189.53;;;26.36;46.24
26859;BME280;14429;48.346;16.338;2023-08-12T09:41:31;100193.44;;;26.27;46.55
26859;BME280;14429;48.346;16.338;2023-08-12T09:43:56;100191.28;;;26.23;45.98
26859;BME280;14429;48.346;16.338;2023-08-12T09:46:22;100191.66;;;26.34;46.83
26859;BME280;14429;48.346;16.338;2023-08-12T09:48:49;100185.97;;;26.36;45.30
26859;BME280;14429;48.346;16.338;2023-08-12T09:51:15;100196.25;;;26.48;45.59
26859;BME280;14429;48.346;16.338;2023-08-12T09:53:42;100194.94;;;26.44;45.80
26859;BME280;14429;48.346;16.338;2023-08-12T09:56:11;100185.69;;;26.45;46.12
26859;BME280;14429;48.346;16.338;2023-08-12T09:58:37;100189.47;;;26.44;45.20
26859;BME280;14429;48.346;16.338;2023-08-12T10:01:05;100182.28;;;26.43;45.91
26859;BME280;14429;48.346;16.338;2023-08-12T10:03:32;100181.16;;;26.38;45.14
26859;BME280;14429;48.346;16.338;2023-08-12T10:05:58;100178.34;;;26.31;46.13
26859;BME280;14429;48.346;16.338;2023-08-12T10:08:25;100170.81;;;26.54;45.33
26859;BME280;14429;48.346;16.338;2023-08-12T10:10:52;100179.47;;;26.72;45.82
26859;BME280;14429;48.346;16.338;2023-08-12T10:13:19;100173.72;;;26.67;44.79
26859;BME280;14429;48.346;16.338;2023-08-12T10:15:45;100171.50;;;26.56;44.92
26859;BME280;14429;48.346;16.338;2023-08-12T10:18:12;100163.31;;;26.42;46.32
26859;BME280;14429;48.346;16.338;2023-08-12T10:20:38;100156.53;;;26.73;45.66
26859;BME280;14429;48.346;16.338;2023-08-12T10:23:04;100161.47;;;26.63;44.54
26859;BME280;14429;48.346;16.338;2023-08-12T10:25:32;100156.59;;;26.79;44.80
26859;BME280;14429;48.346;16.338;2023-08-12T10:27:57;100155.09;;;26.77;44.44
26859;BME280;14429;48.346;16.338;2023-08-12T10:30:28;100156.38;;;27.01;44.98
26859;BME280;14429;48.346;16.338;2023-08-12T10:32:53;100156.38;;;26.60;45.05
26859;BME280;14429;48.346;16.338;2023-08-12T10:35:19;100147.00;;;26.89;45.74
26859;BME280;14429;48.346;16.338;2023-08-12T10:37:48;100144.97;;;26.98;45.47
26859;BME280;14429;48.346;16.338;2023-08-12T10:40:20;100151.63;;;26.68;44.34
26859;BME280;14429;48.346;16.338;2023-08-12T10:42:47;100150.00;;;26.74;44.44
26859;BME280;14429;48.346;16.338;2023-08-12T10:45:14;100150.41;;;26.36;45.63
26859;BME280;14429;48.346;16.338;2023-08-12T10:47:42;100148.78;;;26.41;45.20
26859;BME280;14429;48.346;16.338;2023-08-12T10:50:17;100152.63;;;26.26;45.64
26859;BME280;14429;48.346;16.338;2023-08-12T10:52:42;100142.81;;;26.52;45.15
26859;BME280;14429;48.346;16.338;2023-08-12T10:55:18;100138.97;;;26.32;45.41
26859;BME280;14429;48.346;16.338;2023-08-12T10:57:44;100145.88;;;26.28;46.18
26859;BME280;14429;48.346;16.338;2023-08-12T11:00:11;100140.69;;;26.89;44.64
26859;BME280;14429;48.346;16.338;2023-08-12T11:02:38;100144.97;;;26.56;45.14
26859;BME280;14429;48.346;16.338;2023-08-12T11:05:08;100139.22;;;26.02;46.54
26859;BME280;14429;48.346;16.338;2023-08-12T11:07:38;100130.94;;;26.66;44.87
26859;BME280;14429;48.346;16.338;2023-08-12T11:10:05;100138.22;;;26.38;45.40
26859;BME280;14429;48.346;16.338;2023-08-12T11:12:34;100134.00;;;26.56;44.89
26859;BME280;14429;48.346;16.338;2023-08-12T11:15:01;100135.94;;;26.42;45.30
26859;BME280;14429;48.346;16.338;2023-08-12T11:17:29;100131.81;;;26.31;45.53
26859;BME280;14429;48.346;16.338;2023-08-12T11:19:57;100123.00;;;26.91;44.71
26859;BME280;14429;48.346;16.338;2023-08-12T11:22:24;100116.44;;;27.13;43.46
26859;BME280;14429;48.346;16.338;2023-08-12T11:24:50;100110.81;;;27.21;43.42
26859;BME280;14429;48.346;16.338;2023-08-12T11:27:16;100120.09;;;26.99;43.89
26859;BME280;14429;48.346;16.338;2023-08-12T11:29:42;100117.31;;;26.31;45.54
26859;BME280;14429;48.346;16.338;2023-08-12T11:32:08;100096.59;;;27.11;42.92
26859;BME280;14429;48.346;16.338;2023-08-12T11:34:33;100106.19;;;27.48;42.26
26859;BME280;14429;48.346;16.338;2023-08-12T11:36:58;100095.25;;;27.55;42.76
26859;BME280;14429;48.346;16.338;2023-08-12T11:39:25;100094.31;;;26.87;43.64
26859;BME280;14429;48.346;16.338;2023-08-12T11:41:51;100099.28;;;26.78;44.31
26859;BME280;14429;48.346;16.338;2023-08-12T11:44:22;100083.50;;;27.07;43.52
26859;BME280;14429;48.346;16.338;2023-08-12T11:46:47;100085.69;;;27.17;42.38
26859;BME280;14429;48.346;16.338;2023-08-12T11:49:13;100066.94;;;27.41;41.47
26859;BME280;14429;48.346;16.338;2023-08-12T11:51:38;100070.84;;;27.33;42.70
26859;BME280;14429;48.346;16.338;2023-08-12T11:54:04;100069.19;;;27.11;43.58
26859;BME280;14429;48.346;16.338;2023-08-12T11:56:31;100068.41;;;27.84;41.81
26859;BME280;14429;48.346;16.338;2023-08-12T11:58:57;100057.28;;;27.25;42.90
26859;BME280;14429;48.346;16.338;2023-08-12T12:01:22;100044.91;;;26.75;43.90
26859;BME280;14429;48.346;16.338;2023-08-12T12:03:50;100048.72;;;27.01;44.02
26859;BME280;14429;48.346;16.338;2023-08-12T12:06:16;100043.06;;;27.75;41.68
26859;BME280;14429;48.346;16.338;2023-08-12T12:08:43;100035.72;;;27.89;41.16
26859;BME280;14429;48.346;16.338;2023-08-12T12:11:09;100045.56;;;27.31;43.04
26859;BME280;14429;48.346;16.338;2023-08-12T12:13:36;100045.28;;;27.59;42.52
26859;BME280;14429;48.346;16.338;2023-08-12T12:16:01;100039.75;;;26.86;44.24
26859;BME280;14429;48.346;16.338;2023-08-12T12:18:27;100046.19;;;27.33;43.42
26859;BME280;14429;48.346;16.338;2023-08-12T12:20:56;100041.38;;;27.81;42.05
26859;BME280;14429;48.346;16.338;2023-08-12T12:23:22;100041.13;;;26.76;43.75
26859;BME280;14429;48.346;16.338;2023-08-12T12:25:47;100042.22;;;27.08;43.91
26859;BME280;14429;48.346;16.338;2023-08-12T12:28:13;100034.69;;;27.50;42.33
26859;BME280;14429;48.346;16.338;2023-08-12T12:30:39;100051.75;;;27.18;43.48
26859;BME280;14429;48.346;16.338;2023-08-12T12:33:05;100040.78;;;27.12;43.20